Time;durP1;ratioP1;P1;durP2;ratioP2;P2;SDS_P1;SDS_P2;PMS_P1;PMS_P2;Temp;Humidity;BMP_temperature;BMP_pressure;BME280_temperature;BME280_humidity;BME280_pressure;Samples;Min_cycle;Max_cycle;Signal;HPM_P1;HPM_P2
2022/12/06 00:01:09;;;;;;;;;70.60;57.00;;;;;10.60;60.57;98873.84;6278971;27;96589;-69
2022/12/06 00:04:15;;;;;;;;;71.60;59.00;;;;;10.53;60.79;98846.94;6280416;27;96681;-69
2022/12/06 00:07:18;;;;;;;;;69.50;55.25;;;;;10.59;60.96;98869.50;6283812;27;96902;-69
2022/12/06 00:10:24;;;;;;;;;70.25;57.25;;;;;10.60;61.07;98866.59;6291296;27;96528;-69
2022/12/06 00:13:28;;;;;;;;;66.25;52.00;;;;;10.63;61.11;98859.91;6268825;27;96403;-68
2022/12/06 00:16:33;;;;;;;;;69.80;55.00;;;;;10.59;61.12;98859.53;6281020;27;96710;-68
2022/12/06 00:19:36;;;;;;;;;69.00;56.00;;;;;10.55;61.20;98852.13;6289020;27;96667;-69
2022/12/06 00:22:44;;;;;;;;;69.60;55.60;;;;;10.52;61.34;98836.38;6297798;27;96542;-69
2022/12/06 00:25:48;;;;;;;;;73.00;58.60;;;;;10.56;61.62;98843.78;6288445;27;96995;-69
2022/12/06 00:28:54;;;;;;;;;68.00;54.00;;;;;10.57;61.60;98840.06;6283726;27;96299;-69
2022/12/06 00:31:57;;;;;;;;;70.00;55.00;;;;;10.57;61.39;98829.28;6288650;27;96643;-69
2022/12/06 00:35:01;;;;;;;;;72.00;59.80;;;;;10.54;61.59;98842.38;6292316;27;96539;-69
2022/12/06 00:38:04;;;;;;;;;70.00;55.00;;;;;10.53;61.64;98852.34;6287342;27;96602;-69
2022/12/06 00:41:11;;;;;;;;;71.40;58.20;;;;;10.42;61.56;98839.59;6303214;27;96836;-69
2022/12/06 00:44:15;;;;;;;;;73.20;61.80;;;;;10.49;61.56;98840.34;6276098;27;97631;-69
2022/12/06 00:47:18;;;;;;;;;71.80;55.00;;;;;10.49;61.61;98836.84;6285172;27;96848;-68
2022/12/06 00:50:21;;;;;;;;;76.00;64.20;;;;;10.51;61.61;98840.94;6287013;27;96252;-70
2022/12/06 00:53:26;;;;;;;;;73.00;63.00;;;;;10.53;61.79;98841.56;6288193;27;96770;-69
2022/12/06 00:56:31;;;;;;;;;74.60;63.60;;;;;10.53;61.81;98844.25;6288522;27;96313;-69
2022/12/06 00:59:34;;;;;;;;;73.75;60.25;;;;;10.48;61.96;98833.31;6279387;27;96553;-68
2022/12/06 01:02:38;;;;;;;;;78.00;69.00;;;;;10.49;62.20;98831.44;6282474;27;96566;-68
2022/12/06 01:05:43;;;;;;;;;75.40;64.20;;;;;10.53;61.92;98827.25;6304990;27;96256;-68
2022/12/06 01:08:46;;;;;;;;;77.00;69.00;;;;;10.56;61.82;98824.09;6288885;27;96470;-69
2022/12/06 01:11:51;;;;;;;;;73.40;61.80;;;;;10.58;61.57;98828.22;6287202;27;98084;-69
2022/12/06 01:14:54;;;;;;;;;83.50;76.50;;;;;10.58;61.70;98825.53;6280337;27;96453;-69
2022/12/06 01:17:58;;;;;;;;;78.60;70.60;;;;;10.52;61.77;98825.59;6280866;27;96438;-70
2022/12/06 01:21:04;;;;;;;;;77.75;67.00;;;;;10.45;62.20;98812.19;6288704;27;96472;-69
2022/12/06 01:24:08;;;;;;;;;76.00;65.60;;;;;10.49;61.75;98805.31;6274235;27;96490;-69
2022/12/06 01:27:12;;;;;;;;;77.80;67.00;;;;;10.42;61.87;98808.06;6286522;27;96438;-69
2022/12/06 01:30:16;;;;;;;;;76.00;67.40;;;;;10.29;62.00;98791.22;6266418;27;96627;-69
2022/12/06 01:33:20;;;;;;;;;75.00;63.20;;;;;10.32;62.23;98802.34;6279607;27;96540;-69
2022/12/06 01:36:25;;;;;;;;;77.00;66.20;;;;;10.24;62.58;98802.66;6275494;27;96806;-69
2022/12/06 01:39:28;;;;;;;;;77.00;65.00;;;;;10.22;62.71;98795.81;6304062;27;96438;-69
2022/12/06 01:42:33;;;;;;;;;76.00;64.60;;;;;10.17;62.90;98791.09;6271729;27;96472;-69
2022/12/06 01:45:37;;;;;;;;;76.00;67.20;;;;;10.17;63.09;98793.78;6288731;27;96310;-68
2022/12/06 01:48:41;;;;;;;;;72.33;59.00;;;;;10.22;62.87;98783.19;6287991;27;97198;-69
2022/12/06 01:51:51;;;;;;;;;71.20;58.20;;;;;10.24;62.92;98775.72;6287850;27;96977;-69
2022/12/06 01:54:56;;;;;;;;;73.00;59.00;;;;;10.15;63.25;98777.00;6268558;27;97551;-70
2022/12/06 01:58:05;;;;;;;;;74.20;62.00;;;;;10.18;63.20;98771.19;6278684;27;97171;-70
2022/12/06 02:01:10;;;;;;;;;75.50;60.50;;;;;10.25;63.35;98749.59;6287509;27;96268;-70
2022/12/06 02:04:16;;;;;;;;;74.60;61.80;;;;;10.18;63.52;98729.97;6274326;27;96454;-68
2022/12/06 02:07:22;;;;;;;;;73.25;59.50;;;;;10.36;62.98;98738.88;6278964;27;96249;-69
2022/12/06 02:10:26;;;;;;;;;74.80;59.80;;;;;10.37;63.06;98732.44;6287822;27;96384;-69
2022/12/06 02:13:33;;;;;;;;;73.40;59.80;;;;;10.37;62.69;98729.75;6286344;27;96503;-68
2022/12/06 02:16:53;;;;;;;;;72.00;59.40;;;;;10.37;62.88;98745.09;6284730;27;96506;-69
2022/12/06 02:20:12;;;;;;;;;75.80;65.80;;;;;10.41;62.93;98720.16;6276070;27;96534;-68
2022/12/06 02:23:40;;;;;;;;;75.75;64.00;;;;;10.40;62.75;98713.16;6288028;27;96439;-69
2022/12/06 02:26:47;;;;;;;;;73.75;62.25;;;;;10.40;63.05;98710.47;6279259;27;96999;-69
2022/12/06 02:30:11;;;;;;;;;72.40;60.40;;;;;10.43;63.16;98709.19;6297800;27;96210;-69
2022/12/06 02:33:23;;;;;;;;;72.40;58.80;;;;;10.35;63.33;98696.84;6285650;27;96301;-68
2022/12/06 02:36:32;;;;;;;;;71.00;57.60;;;;;10.41;63.57;98711.25;6285645;27;96659;-69
2022/12/06 02:39:42;;;;;;;;;71.75;57.50;;;;;10.45;63.69;98703.56;6287143;27;96486;-68
2022/12/06 02:42:51;;;;;;;;;70.00;57.00;;;;;10.43;63.80;98698.41;6287205;27;96297;-68
2022/12/06 02:45:59;;;;;;;;;70.60;55.00;;;;;10.48;63.70;98689.63;6285415;27;98589;-69
2022/12/06 02:49:06;;;;;;;;;71.00;55.40;;;;;10.48;63.95;98689.63;6286645;27;97381;-70
2022/12/06 02:52:11;;;;;;;;;69.75;56.50;;;;;10.41;63.87;98685.13;6286641;27;96518;-69
2022/12/06 02:55:18;;;;;;;;;72.00;59.20;;;;;10.44;63.75;98678.50;6283783;27;96674;-69
2022/12/06 02:58:21;;;;;;;;;74.75;60.25;;;;;10.42;63.69;98667.94;6286922;27;97007;-69
2022/12/06 03:01:29;;;;;;;;;72.80;61.20;;;;;10.39;63.74;98668.38;6286350;27;97112;-69
2022/12/06 03:04:47;;;;;;;;;71.80;58.00;;;;;10.30;64.29;98656.28;6285312;27;97089;-69
2022/12/06 03:07:53;;;;;;;;;69.80;55.20;;;;;10.29;64.00;98656.50;6289350;27;97089;-69
2022/12/06 03:11:00;;;;;;;;;70.33;55.67;;;;;10.25;64.47;98668.78;6280064;27;96333;-70
2022/12/06 03:14:07;;;;;;;;;66.20;51.20;;;;;10.17;64.71;98669.06;6275356;27;96282;-69
2022/12/06 03:17:22;;;;;;;;;66.00;51.00;;;;;10.19;64.77;98654.31;6279777;27;96376;-70
2022/12/06 03:20:41;;;;;;;;;73.25;60.50;;;;;10.17;64.74;98651.00;6285571;27;96751;-69
2022/12/06 03:23:48;;;;;;;;;75.40;61.60;;;;;10.16;64.76;98668.25;6274367;27;96281;-69
2022/12/06 03:26:56;;;;;;;;;68.60;53.60;;;;;10.15;64.72;98665.75;6286466;27;96336;-69
2022/12/06 03:30:04;;;;;;;;;71.80;57.40;;;;;9.94;65.21;98656.22;6285627;27;96357;-70
2022/12/06 03:33:08;;;;;;;;;72.00;58.25;;;;;9.93;65.25;98644.63;6283632;27;96461;-68
2022/12/06 03:36:17;;;;;;;;;70.00;55.00;;;;;9.90;65.38;98641.56;6277714;27;97910;-70
2022/12/06 03:39:26;;;;;;;;;72.00;56.40;;;;;9.88;65.40;98639.09;6286389;27;96408;-69
2022/12/06 03:42:30;;;;;;;;;70.60;57.80;;;;;9.84;65.58;98639.75;6284679;27;96422;-69
2022/12/06 03:45:42;;;;;;;;;66.75;51.75;;;;;9.86;65.43;98640.38;6285139;27;96370;-68
2022/12/06 03:48:49;;;;;;;;;70.25;57.00;;;;;9.66;66.34;98637.88;6282835;27;96459;-69
2022/12/06 03:51:55;;;;;;;;;70.00;57.20;;;;;9.64;66.12;98637.25;6285372;27;96601;-68
2022/12/06 03:54:58;;;;;;;;;66.80;52.00;;;;;9.57;66.56;98642.72;6290325;27;96251;-68
2022/12/06 03:58:01;;;;;;;;;67.00;52.00;;;;;9.66;65.78;98637.03;6287618;27;96294;-68
2022/12/06 04:01:08;;;;;;;;;67.00;52.00;;;;;9.65;66.01;98636.22;6288525;27;96883;-69
2022/12/06 04:04:11;;;;;;;;;67.00;51.00;;;;;9.74;65.92;98631.38;6269805;27;97577;-69
2022/12/06 04:07:19;;;;;;;;;66.50;51.75;;;;;9.76;65.61;98611.28;6288806;27;96360;-69
2022/12/06 04:10:23;;;;;;;;;66.25;53.00;;;;;9.79;65.36;98607.28;6288236;27;96238;-69
2022/12/06 04:13:27;;;;;;;;;67.60;51.00;;;;;9.67;65.22;98584.88;6289498;27;97189;-69
2022/12/06 04:19:51;;;;;;;;;66.00;51.60;;;;;9.75;65.27;98590.78;6287238;27;96900;-69
2022/12/06 04:23:04;;;;;;;;;66.60;52.20;;;;;9.67;65.13;98574.94;6285607;27;96899;-69
2022/12/06 04:26:09;;;;;;;;;64.00;50.60;;;;;9.73;64.87;98576.69;6288471;27;96605;-69
2022/12/06 04:39:19;;;;;;;;;62.40;50.00;;;;;9.89;64.29;98586.06;6286729;27;97026;-69
2022/12/06 04:45:44;;;;;;;;;64.60;49.40;;;;;9.87;63.82;98596.25;6272136;27;96754;-68
2022/12/06 04:48:47;;;;;;;;;64.20;50.40;;;;;9.85;63.96;98598.31;6287418;27;96448;-68
2022/12/06 04:51:51;;;;;;;;;65.00;51.00;;;;;9.90;63.83;98588.53;6289108;27;96519;-68
2022/12/06 04:54:55;;;;;;;;;62.60;51.00;;;;;9.91;63.48;98592.06;6288044;27;96235;-68
2022/12/06 04:57:59;;;;;;;;;67.25;54.00;;;;;9.90;63.71;98593.09;6288034;27;97028;-68
2022/12/06 05:01:02;;;;;;;;;67.60;53.00;;;;;9.88;63.54;98582.53;6275153;27;96569;-68
2022/12/06 05:04:05;;;;;;;;;65.60;51.80;;;;;9.88;63.60;98579.03;6279636;27;96257;-69
2022/12/06 05:07:10;;;;;;;;;67.20;53.00;;;;;9.88;63.51;98571.78;6286730;27;96363;-69
2022/12/06 05:10:15;;;;;;;;;64.00;50.00;;;;;9.85;63.72;98566.84;6286665;27;97066;-69
2022/12/06 05:13:20;;;;;;;;;71.00;57.00;;;;;9.90;63.46;98580.47;6286789;27;96650;-69
2022/12/06 05:16:23;;;;;;;;;66.00;52.00;;;;;9.92;63.34;98583.72;6287774;27;97046;-69
2022/12/06 05:19:27;;;;;;;;;66.40;51.00;;;;;9.94;63.18;98583.50;6285044;27;96388;-69
2022/12/06 05:22:32;;;;;;;;;67.00;53.40;;;;;9.80;63.32;98557.78;6271355;27;96537;-69
2022/12/06 05:25:37;;;;;;;;;64.00;51.00;;;;;9.98;63.11;98585.53;6283300;27;96808;-68
2022/12/06 05:28:41;;;;;;;;;61.25;48.00;;;;;10.01;62.74;98578.88;6286256;27;96437;-69
2022/12/06 05:31:44;;;;;;;;;66.00;50.00;;;;;10.05;63.25;98566.59;6287403;27;97506;-69
2022/12/06 05:34:48;;;;;;;;;66.00;52.75;;;;;10.05;62.74;98557.69;6286268;27;98543;-69
2022/12/06 05:37:51;;;;;;;;;65.00;51.20;;;;;10.07;62.54;98555.63;6278668;27;96353;-69
2022/12/06 05:40:56;;;;;;;;;66.00;52.00;;;;;10.06;62.81;98552.09;6285802;27;97529;-69
2022/12/06 05:43:59;;;;;;;;;61.60;49.00;;;;;10.07;62.46;98553.72;6283370;27;97297;-68
2022/12/06 05:47:03;;;;;;;;;68.80;54.60;;;;;10.07;62.66;98537.56;6285830;27;96471;-69
2022/12/06 05:50:07;;;;;;;;;65.00;50.00;;;;;10.10;62.57;98542.50;6294635;27;96332;-69
2022/12/06 05:53:11;;;;;;;;;64.60;50.80;;;;;10.01;62.89;98535.81;6287709;27;96597;-68
2022/12/06 05:56:15;;;;;;;;;69.00;52.00;;;;;10.04;62.74;98547.97;6288335;27;96465;-68
2022/12/06 05:59:18;;;;;;;;;66.00;50.80;;;;;10.10;62.65;98539.81;6287541;27;96578;-69
2022/12/06 06:02:22;;;;;;;;;63.60;51.00;;;;;10.10;62.37;98534.44;6284098;27;96634;-69
2022/12/06 06:05:25;;;;;;;;;63.00;50.00;;;;;10.09;62.32;98542.72;6286025;27;96287;-69
2022/12/06 06:08:30;;;;;;;;;63.60;50.60;;;;;9.92;62.17;98531.78;6285568;27;96495;-69
2022/12/06 06:11:35;;;;;;;;;62.00;49.00;;;;;10.03;62.28;98544.47;6283525;27;96414;-69
2022/12/06 06:14:38;;;;;;;;;60.00;48.00;;;;;10.06;62.10;98544.03;6285606;27;96607;-68
2022/12/06 06:17:42;;;;;;;;;62.00;48.80;;;;;10.06;62.28;98545.88;6298853;27;96521;-68
2022/12/06 06:20:50;;;;;;;;;61.40;47.80;;;;;10.04;62.04;98554.19;6289598;27;96617;-68
2022/12/06 06:23:53;;;;;;;;;60.00;47.75;;;;;10.04;62.22;98547.97;6285599;27;97186;-70
2022/12/06 06:26:58;;;;;;;;;62.00;51.00;;;;;10.08;62.19;98539.22;6282080;27;96323;-69
2022/12/06 06:30:02;;;;;;;;;62.80;49.20;;;;;10.10;62.23;98537.13;6286410;27;96535;-70
2022/12/06 06:33:06;;;;;;;;;55.00;44.00;;;;;10.15;61.86;98529.19;6288480;27;97552;-68
2022/12/06 06:36:10;;;;;;;;;57.80;46.00;;;;;10.12;61.89;98521.53;6287860;27;96384;-68
2022/12/06 06:39:14;;;;;;;;;57.00;46.60;;;;;10.14;61.88;98541.00;6288046;27;96249;-69
2022/12/06 06:42:18;;;;;;;;;61.40;47.80;;;;;10.12;61.58;98523.41;6285698;27;97144;-69
2022/12/06 06:45:22;;;;;;;;;56.00;44.75;;;;;10.09;61.76;98524.69;6285848;27;97639;-68
2022/12/06 06:48:34;;;;;;;;;60.40;47.80;;;;;9.90;61.71;98502.38;6286207;27;97530;-68
2022/12/06 06:51:37;;;;;;;;;59.00;47.00;;;;;10.03;61.93;98525.59;6285828;27;97009;-68
2022/12/06 06:54:41;;;;;;;;;56.40;45.60;;;;;10.05;61.98;98517.31;6297326;27;96433;-68
2022/12/06 06:57:46;;;;;;;;;57.40;46.00;;;;;10.08;61.98;98516.84;6285390;27;97385;-68
2022/12/06 07:00:53;;;;;;;;;57.00;46.00;;;;;10.06;61.57;98510.88;6286973;27;96957;-69
2022/12/06 07:03:56;;;;;;;;;60.50;47.25;;;;;10.09;61.70;98515.78;6287169;27;96724;-69
2022/12/06 07:06:59;;;;;;;;;57.00;46.33;;;;;10.05;61.75;98509.22;6286393;27;96434;-69
2022/12/06 07:10:03;;;;;;;;;60.40;48.00;;;;;10.09;61.86;98513.09;6283745;27;97197;-69
2022/12/06 07:13:08;;;;;;;;;54.60;45.00;;;;;10.13;61.79;98509.72;6281794;27;96590;-69
2022/12/06 07:16:15;;;;;;;;;58.00;45.75;;;;;9.94;62.21;98500.88;6283682;27;96264;-69
2022/12/06 07:19:18;;;;;;;;;53.00;43.60;;;;;9.77;62.62;98507.09;6283639;27;96491;-70
2022/12/06 07:22:22;;;;;;;;;57.00;45.00;;;;;9.83;62.68;98498.09;6284238;27;96381;-68
2022/12/06 07:25:25;;;;;;;;;56.80;45.60;;;;;9.84;62.63;98503.28;6279894;27;96441;-68
2022/12/06 07:28:30;;;;;;;;;48.20;39.60;;;;;9.70;62.85;98509.88;6289220;27;96427;-68
2022/12/06 07:31:34;;;;;;;;;49.67;39.67;;;;;9.76;62.58;98505.47;6289874;27;96577;-68
2022/12/06 07:34:37;;;;;;;;;49.00;41.00;;;;;9.83;62.34;98498.09;6278484;27;96571;-68
2022/12/06 07:37:42;;;;;;;;;49.00;41.00;;;;;9.71;62.19;98478.38;6290122;27;96302;-68
2022/12/06 07:40:45;;;;;;;;;54.50;44.00;;;;;9.85;61.87;98501.41;6287063;27;96319;-69
2022/12/06 07:47:34;;;;;;;;;44.40;36.60;;;;;9.90;61.90;98490.78;6288056;27;96299;-68
2022/12/06 07:50:38;;;;;;;;;42.00;36.00;;;;;9.88;61.68;98487.47;6280614;27;96903;-68
2022/12/06 07:53:41;;;;;;;;;47.00;38.60;;;;;9.90;61.83;98478.13;6284372;27;96511;-68
2022/12/06 07:56:45;;;;;;;;;50.80;41.20;;;;;9.69;61.46;98456.25;6290062;27;96355;-69
2022/12/06 07:59:50;;;;;;;;;44.80;38.60;;;;;9.83;61.63;98472.00;6290478;27;96669;-69
2022/12/06 08:02:53;;;;;;;;;51.00;41.00;;;;;9.80;61.79;98460.88;6284397;27;96220;-69
2022/12/06 08:05:56;;;;;;;;;48.60;39.60;;;;;9.83;61.92;98468.50;6289426;27;96206;-69
2022/12/06 08:09:00;;;;;;;;;47.00;38.50;;;;;9.86;61.95;98462.66;6289428;27;96662;-69
2022/12/06 08:12:04;;;;;;;;;46.20;39.00;;;;;9.89;61.73;98468.41;6291927;27;96387;-69
2022/12/06 08:15:11;;;;;;;;;48.00;40.00;;;;;9.99;61.74;98463.31;6289444;27;96213;-68
2022/12/06 08:18:15;;;;;;;;;45.00;36.20;;;;;10.05;61.30;98458.88;6307206;27;96926;-68
2022/12/06 08:21:18;;;;;;;;;47.00;39.00;;;;;10.06;61.15;98463.22;6288720;27;97456;-69
2022/12/06 08:24:22;;;;;;;;;48.20;40.20;;;;;10.06;61.22;98459.72;6288422;27;96596;-69
2022/12/06 08:27:25;;;;;;;;;46.20;38.00;;;;;9.97;61.27;98459.19;6307302;27;96506;-69
2022/12/06 08:30:30;;;;;;;;;42.40;35.00;;;;;10.00;61.33;98461.44;6290858;27;96424;-69
2022/12/06 08:33:34;;;;;;;;;43.25;36.25;;;;;9.91;61.61;98462.81;6289191;27;97479;-70
2022/12/06 08:36:39;;;;;;;;;50.00;40.00;;;;;9.83;61.60;98471.19;6288777;27;96529;-69
2022/12/06 08:39:42;;;;;;;;;46.80;39.00;;;;;9.78;61.62;98465.66;6287161;27;96472;-70
2022/12/06 08:42:45;;;;;;;;;43.20;36.20;;;;;9.72;61.61;98471.97;6290638;27;96928;-70
2022/12/06 08:45:52;;;;;;;;;44.80;36.20;;;;;9.56;62.02;98471.53;6290023;27;96488;-69
2022/12/06 08:48:56;;;;;;;;;48.00;39.00;;;;;9.58;62.23;98471.28;6298560;27;96821;-71
2022/12/06 08:52:00;;;;;;;;;50.00;40.40;;;;;9.52;62.54;98467.66;6289317;27;96373;-68
2022/12/06 08:55:03;;;;;;;;;45.00;38.00;;;;;9.62;62.54;98471.69;6290258;27;96443;-70
2022/12/06 08:58:07;;;;;;;;;49.75;40.75;;;;;9.66;62.54;98467.47;6288090;27;97026;-69
2022/12/06 09:01:13;;;;;;;;;44.00;36.50;;;;;9.75;62.58;98466.94;6304956;27;96408;-69
2022/12/06 09:04:17;;;;;;;;;47.00;39.00;;;;;9.83;62.27;98471.19;6279918;27;96636;-70
2022/12/06 09:07:22;;;;;;;;;45.60;39.00;;;;;9.90;62.11;98474.63;6291331;27;96165;-69
2022/12/06 09:10:25;;;;;;;;;47.00;39.00;;;;;9.95;61.94;98469.38;6291802;27;96968;-68
2022/12/06 09:13:29;;;;;;;;;49.00;41.00;;;;;9.92;61.47;98464.47;6290869;27;96846;-69
2022/12/06 09:16:34;;;;;;;;;47.20;38.00;;;;;9.98;61.66;98455.44;6285261;27;97340;-69
2022/12/06 09:19:38;;;;;;;;;46.25;38.50;;;;;9.99;61.45;98457.91;6287746;27;96305;-68
2022/12/06 09:22:41;;;;;;;;;41.40;33.40;;;;;10.04;61.23;98456.41;6288002;27;96603;-68
2022/12/06 09:25:44;;;;;;;;;48.50;39.25;;;;;10.02;61.74;98448.53;6287964;27;96847;-69
2022/12/06 09:28:49;;;;;;;;;51.00;42.80;;;;;10.08;60.94;98444.13;6286884;27;96768;-69
2022/12/06 09:31:54;;;;;;;;;47.40;41.00;;;;;10.09;60.80;98448.47;6275674;27;96534;-69
2022/12/06 09:34:57;;;;;;;;;47.00;38.20;;;;;10.01;61.15;98457.69;6288330;27;96576;-68
2022/12/06 09:38:02;;;;;;;;;46.75;38.25;;;;;9.96;61.52;98433.31;6293415;27;96547;-68
2022/12/06 09:41:16;;;;;;;;;45.00;37.00;;;;;10.00;61.73;98442.59;6295312;27;96381;-68
2022/12/06 09:44:39;;;;;;;;;39.00;34.25;;;;;10.10;61.75;98437.47;6290180;27;97615;-69
2022/12/06 09:48:05;;;;;;;;;47.00;38.00;;;;;10.19;61.55;98438.81;6291423;27;96339;-68
2022/12/06 09:51:24;;;;;;;;;48.75;40.50;;;;;10.26;61.70;98426.03;6286140;27;96325;-69
2022/12/06 09:54:47;;;;;;;;;45.00;38.00;;;;;10.28;61.81;98418.56;6286379;27;96649;-69
2022/12/06 09:58:08;;;;;;;;;39.75;34.00;;;;;10.24;61.49;98414.69;6297739;27;96267;-69
2022/12/06 10:01:25;;;;;;;;;37.00;34.00;;;;;10.30;61.61;98408.41;6299400;27;96617;-69
2022/12/06 10:04:57;;;;;;;;;35.25;32.25;;;;;10.29;61.73;98405.91;6288401;27;96897;-69
2022/12/06 10:08:11;;;;;;;;;41.40;34.40;;;;;10.33;61.64;98409.78;6279978;27;97636;-69
2022/12/06 10:11:26;;;;;;;;;38.25;33.00;;;;;10.38;61.60;98413.44;6297676;27;99223;-69
2022/12/06 10:14:46;;;;;;;;;43.40;33.20;;;;;10.42;61.53;98401.13;6293238;27;97043;-68
2022/12/06 10:18:05;;;;;;;;;35.60;32.00;;;;;10.43;61.45;98397.41;6288444;27;96945;-68
2022/12/06 10:21:22;;;;;;;;;34.00;31.00;;;;;10.47;61.44;98394.22;6288210;27;97016;-68
2022/12/06 10:24:42;;;;;;;;;34.60;32.00;;;;;10.50;61.07;98399.16;6287973;27;96379;-68
2022/12/06 10:27:57;;;;;;;;;37.50;32.75;;;;;10.52;61.25;98407.81;6293199;27;96722;-69
2022/12/06 10:31:12;;;;;;;;;35.60;31.20;;;;;10.53;61.33;98388.72;6292378;27;96502;-69
2022/12/06 10:34:21;;;;;;;;;34.25;29.75;;;;;10.56;60.85;98390.94;6287105;27;96465;-69
2022/12/06 10:37:41;;;;;;;;;35.00;31.80;;;;;10.57;60.86;98389.06;6286135;27;96443;-69
2022/12/06 10:40:53;;;;;;;;;36.80;32.60;;;;;10.62;60.85;98387.31;6287302;27;96312;-67
2022/12/06 10:44:02;;;;;;;;;39.00;32.00;;;;;10.68;61.01;98388.25;6288885;27;96302;-68
2022/12/06 10:47:11;;;;;;;;;37.20;32.00;;;;;10.70;60.82;98383.47;6297198;27;96278;-68
2022/12/06 10:50:23;;;;;;;;;43.80;35.00;;;;;10.73;60.87;98378.44;6286869;27;96832;-68
2022/12/06 10:53:34;;;;;;;;;44.60;38.60;;;;;10.79;60.71;98382.06;6275902;27;96256;-68
2022/12/06 10:56:41;;;;;;;;;39.00;33.00;;;;;10.80;60.45;98370.19;6281329;27;96708;-68
2022/12/06 10:59:53;;;;;;;;;35.00;31.40;;;;;10.81;60.40;98363.75;6288771;27;96807;-68
2022/12/06 11:03:03;;;;;;;;;46.40;37.80;;;;;10.88;60.36;98356.38;6289147;27;98572;-68
2022/12/06 11:06:15;;;;;;;;;35.00;32.20;;;;;10.89;59.82;98357.19;6290888;27;96747;-67
2022/12/06 11:09:31;;;;;;;;;36.60;32.40;;;;;10.87;59.96;98352.03;6289452;27;96349;-67
2022/12/06 11:12:38;;;;;;;;;40.00;35.50;;;;;10.88;59.95;98358.25;6291268;27;96479;-67
2022/12/06 11:15:49;;;;;;;;;42.33;35.33;;;;;10.93;60.00;98359.19;6290840;27;96678;-67
2022/12/06 11:18:56;;;;;;;;;45.60;38.00;;;;;10.94;60.27;98357.31;6300061;27;96507;-67
2022/12/06 11:22:11;;;;;;;;;37.60;33.40;;;;;10.95;60.14;98354.34;6290551;27;96453;-66
2022/12/06 11:25:23;;;;;;;;;40.00;34.50;;;;;10.99;60.27;98352.03;6290502;27;96472;-67
2022/12/06 11:28:37;;;;;;;;;41.00;36.00;;;;;11.00;60.12;98348.25;6289499;27;96362;-66
2022/12/06 11:31:45;;;;;;;;;41.40;34.40;;;;;10.99;60.19;98347.47;6288690;27;96459;-66
2022/12/06 11:34:51;;;;;;;;;39.00;34.00;;;;;11.03;60.03;98355.88;6282912;27;96793;-68
2022/12/06 11:37:58;;;;;;;;;44.25;36.00;;;;;11.07;60.15;98341.69;6290064;27;96533;-67
2022/12/06 11:41:08;;;;;;;;;41.80;35.60;;;;;11.05;60.04;98343.78;6288759;27;96254;-67
2022/12/06 11:44:17;;;;;;;;;46.80;38.80;;;;;11.05;60.19;98338.38;6289782;27;96628;-68
2022/12/06 11:47:22;;;;;;;;;45.00;38.00;;;;;10.97;60.02;98341.47;6289284;27;96824;-67
2022/12/06 11:50:30;;;;;;;;;45.00;37.60;;;;;10.96;60.34;98347.91;6285971;27;96274;-67
2022/12/06 11:53:40;;;;;;;;;44.00;37.40;;;;;10.98;60.60;98347.69;6283315;27;96524;-67
2022/12/06 11:56:45;;;;;;;;;37.00;33.00;;;;;11.01;60.54;98349.91;6289885;27;96675;-67
2022/12/06 12:00:12;;;;;;;;;42.00;36.60;;;;;10.97;60.66;98341.47;6291880;27;96847;-68
2022/12/06 12:03:28;;;;;;;;;47.20;39.00;;;;;11.03;60.69;98345.91;6289757;27;96330;-67
2022/12/06 12:06:33;;;;;;;;;44.50;36.00;;;;;11.04;60.60;98336.78;6292437;27;96357;-67
2022/12/06 12:09:47;;;;;;;;;46.67;38.67;;;;;11.02;60.46;98324.56;6286299;27;96345;-67
2022/12/06 12:16:18;;;;;;;;;45.40;38.00;;;;;10.97;61.00;98335.25;6300213;27;96664;-67
2022/12/06 12:19:32;;;;;;;;;45.00;38.00;;;;;10.96;61.31;98326.34;6304258;27;96405;-67
2022/12/06 12:22:38;;;;;;;;;45.00;38.00;;;;;10.95;61.56;98332.78;6291495;27;96447;-67
2022/12/06 12:25:42;;;;;;;;;48.00;40.00;;;;;10.91;61.85;98331.63;6293926;27;96702;-67
2022/12/06 12:29:03;;;;;;;;;44.60;36.60;;;;;10.89;61.96;98320.28;6291600;27;96340;-67
2022/12/06 12:32:11;;;;;;;;;44.80;37.40;;;;;10.84;61.86;98315.59;6290447;27;96700;-67
2022/12/06 12:35:26;;;;;;;;;48.50;40.50;;;;;10.98;62.07;98313.44;6292667;27;96320;-67
2022/12/06 12:38:37;;;;;;;;;45.20;38.00;;;;;11.01;62.19;98318.34;6292347;27;96980;-67
2022/12/06 12:41:43;;;;;;;;;45.00;38.00;;;;;11.06;62.36;98306.84;6273498;27;96624;-67
2022/12/06 12:44:49;;;;;;;;;49.00;40.00;;;;;11.06;62.12;98315.75;6295214;27;97086;-67
2022/12/06 12:48:00;;;;;;;;;42.20;36.00;;;;;10.97;61.98;98309.09;6295283;27;96388;-68
2022/12/06 12:51:05;;;;;;;;;47.00;39.00;;;;;11.09;62.52;98315.28;6289157;27;96244;-67
2022/12/06 12:54:20;;;;;;;;;46.00;39.00;;;;;11.09;62.54;98314.47;6294232;27;97811;-67
2022/12/06 12:57:24;;;;;;;;;45.80;39.00;;;;;11.06;62.26;98314.94;6290970;27;96855;-67
2022/12/06 13:00:34;;;;;;;;;47.50;39.75;;;;;11.09;62.32;98309.88;6290506;27;96219;-67
2022/12/06 13:03:39;;;;;;;;;47.40;39.20;;;;;11.06;62.19;98314.94;6290850;27;96293;-67
2022/12/06 13:06:59;;;;;;;;;45.00;37.00;;;;;11.03;62.46;98315.44;6290222;27;96369;-67
2022/12/06 13:10:06;;;;;;;;;49.00;40.80;;;;;10.93;62.65;98313.34;6291805;27;96491;-68
2022/12/06 13:13:16;;;;;;;;;47.20;39.00;;;;;10.96;62.67;98307.47;6298327;27;96270;-68
2022/12/06 13:16:27;;;;;;;;;44.00;36.00;;;;;11.02;62.44;98306.50;6287009;27;96506;-68
2022/12/06 13:19:35;;;;;;;;;45.00;37.00;;;;;11.07;62.30;98309.31;6283333;27;96436;-67
2022/12/06 13:22:44;;;;;;;;;41.00;35.80;;;;;11.11;62.22;98315.03;6287017;27;96985;-67
2022/12/06 13:25:52;;;;;;;;;45.20;38.00;;;;;11.12;61.66;98316.69;6287327;27;96398;-67
2022/12/06 13:29:00;;;;;;;;;45.00;38.00;;;;;11.14;61.97;98309.97;6285657;27;97028;-68
2022/12/06 13:32:13;;;;;;;;;41.75;35.00;;;;;11.15;61.92;98308.94;6289020;27;96366;-68
2022/12/06 13:35:23;;;;;;;;;44.00;36.60;;;;;11.05;61.91;98310.59;6289454;27;96786;-67
2022/12/06 13:38:31;;;;;;;;;31.40;30.00;;;;;10.96;61.22;98306.63;6287320;27;96551;-67
2022/12/06 13:45:44;;;;;;;;;24.00;22.00;;;;;10.71;59.78;98312.31;6289386;27;96240;-68
2022/12/06 13:48:53;;;;;;;;;19.00;19.00;;;;;10.68;59.84;98313.59;6271221;27;98418;-67
2022/12/06 13:51:57;;;;;;;;;13.00;12.00;;;;;10.65;59.77;98315.97;6289574;27;96508;-68
2022/12/06 13:55:40;;;;;;;;;15.00;14.00;;;;;10.60;60.05;98313.97;6289427;27;96468;-67
2022/12/06 13:58:53;;;;;;;;;18.00;16.00;;;;;10.40;60.23;98321.59;6291538;27;96315;-67
2022/12/06 14:01:58;;;;;;;;;12.40;12.40;;;;;10.34;60.21;98317.97;6291143;27;96320;-67
2022/12/06 14:05:04;;;;;;;;;13.40;11.60;;;;;10.29;60.37;98317.84;6297456;27;96471;-68
2022/12/06 14:08:10;;;;;;;;;15.50;14.00;;;;;10.30;60.34;98322.19;6294500;27;96089;-68
2022/12/06 14:11:22;;;;;;;;;13.80;13.00;;;;;10.28;60.40;98318.06;6289811;27;96212;-68
2022/12/06 14:14:25;;;;;;;;;20.00;19.00;;;;;10.27;60.70;98311.84;6287522;27;96673;-67
2022/12/06 14:17:38;;;;;;;;;11.40;10.80;;;;;10.27;60.73;98313.72;6290420;27;96256;-67
2022/12/06 14:21:03;;;;;;;;;17.00;16.00;;;;;10.23;60.21;98299.09;6291271;27;96310;-68
2022/12/06 14:24:07;;;;;;;;;15.50;14.50;;;;;10.22;60.30;98303.66;6288018;27;96397;-68
2022/12/06 14:27:13;;;;;;;;;14.00;13.80;;;;;10.20;60.24;98308.47;6280582;27;97018;-68
2022/12/06 14:30:19;;;;;;;;;15.60;14.60;;;;;10.11;59.96;98303.63;6278123;27;96666;-69
2022/12/06 14:33:28;;;;;;;;;15.00;14.40;;;;;10.14;60.22;98303.97;6278474;27;96819;-67
2022/12/06 14:36:35;;;;;;;;;17.00;14.80;;;;;10.06;60.26;98307.03;6287737;27;96570;-67
2022/12/06 14:39:38;;;;;;;;;18.00;17.00;;;;;10.04;60.73;98305.59;6288454;27;96384;-67
2022/12/06 14:43:00;;;;;;;;;14.75;14.25;;;;;9.97;61.13;98300.31;6287277;27;96709;-67
2022/12/06 14:46:06;;;;;;;;;20.50;20.00;;;;;9.89;61.18;98304.16;6287020;27;96345;-67
2022/12/06 14:52:35;;;;;;;;;18.00;17.00;;;;;9.87;60.95;98305.47;6282415;27;96258;-67
2022/12/06 14:55:53;;;;;;;;;20.20;18.00;;;;;9.77;60.88;98315.97;6288422;27;96884;-67